sensor_id;sensor_type;location;lat;lon;timestamp;pressure;altitude;pressure_sealevel;temperature;humidity
61014;BME280;46899;47.542;19.082;2023-02-15T00:01:30;102197.97;;;-0.80;100.00
61014;BME280;46899;47.542;19.082;2023-02-15T00:04:33;102204.59;;;-0.85;100.00
61014;BME280;46899;47.542;19.082;2023-02-15T00:07:51;102199.06;;;-0.95;100.00
61014;BME280;46899;47.542;19.082;2023-02-15T00:11:02;102203.22;;;-0.97;100.00
61014;BME280;46899;47.542;19.082;2023-02-15T00:14:05;102198.91;;;-0.98;100.00
61014;BME280;46899;47.542;19.082;2023-02-15T00:17:08;102199.75;;;-0.99;100.00
61014;BME280;46899;47.542;19.082;2023-02-15T00:20:11;102205.47;;;-1.05;100.00
61014;BME280;46899;47.542;19.082;2023-02-15T00:23:13;102202.66;;;-1.11;100.00
61014;BME280;46899;47.542;19.082;2023-02-15T00:26:16;102204.19;;;-1.14;100.00
61014;BME280;46899;47.542;19.082;2023-02-15T00:29:19;102204.34;;;-1.11;100.00
61014;BME280;46899;47.542;19.082;2023-02-15T00:32:22;102198.97;;;-1.17;100.00
61014;BME280;46899;47.542;19.082;2023-02-15T00:35:25;102207.50;;;-1.17;100.00
61014;BME280;46899;47.542;19.082;2023-02-15T00:38:27;102205.12;;;-1.12;100.00
61014;BME280;46899;47.542;19.082;2023-02-15T00:41:31;102208.25;;;-1.19;100.00
61014;BME280;46899;47.542;19.082;2023-02-15T00:44:33;102208.19;;;-1.21;100.00
61014;BME280;46899;47.542;19.082;2023-02-15T00:47:36;102203.44;;;-1.32;100.00
61014;BME280;46899;47.542;19.082;2023-02-15T00:50:39;102203.28;;;-1.35;100.00
61014;BME280;46899;47.542;19.082;2023-02-15T00:53:41;102203.84;;;-1.43;100.00
61014;BME280;46899;47.542;19.082;2023-02-15T00:56:44;102196.25;;;-1.41;100.00
61014;BME280;46899;47.542;19.082;2023-02-15T00:59:46;102200.31;;;-1.46;100.00
61014;BME280;46899;47.542;19.082;2023-02-15T01:02:49;102199.09;;;-1.54;100.00
61014;BME280;46899;47.542;19.082;2023-02-15T01:05:52;102195.50;;;-1.58;100.00
61014;BME280;46899;47.542;19.082;2023-02-15T01:08:54;102199.81;;;-1.57;100.00
61014;BME280;46899;47.542;19.082;2023-02-15T01:11:57;102200.63;;;-1.58;100.00
61014;BME280;46899;47.542;19.082;2023-02-15T01:15:01;102203.31;;;-1.55;100.00
61014;BME280;46899;47.542;19.082;2023-02-15T01:18:04;102201.44;;;-1.59;100.00
61014;BME280;46899;47.542;19.082;2023-02-15T01:21:10;102204.59;;;-1.64;100.00
61014;BME280;46899;47.542;19.082;2023-02-15T01:24:13;102201.84;;;-1.69;100.00
61014;BME280;46899;47.542;19.082;2023-02-15T01:27:16;102204.19;;;-1.73;100.00
61014;BME280;46899;47.542;19.082;2023-02-15T01:30:18;102202.38;;;-1.76;100.00
61014;BME280;46899;47.542;19.082;2023-02-15T01:33:22;102201.44;;;-1.78;100.00
61014;BME280;46899;47.542;19.082;2023-02-15T01:36:24;102196.88;;;-1.85;100.00
61014;BME280;46899;47.542;19.082;2023-02-15T01:39:27;102196.88;;;-1.85;100.00
61014;BME280;46899;47.542;19.082;2023-02-15T01:42:31;102185.44;;;-1.93;100.00
61014;BME280;46899;47.542;19.082;2023-02-15T01:45:33;102179.53;;;-1.92;100.00
61014;BME280;46899;47.542;19.082;2023-02-15T01:48:36;102170.03;;;-1.96;100.00
61014;BME280;46899;47.542;19.082;2023-02-15T01:51:43;102169.88;;;-1.99;100.00
61014;BME280;46899;47.542;19.082;2023-02-15T01:54:47;102176.59;;;-2.01;100.00
61014;BME280;46899;47.542;19.082;2023-02-15T01:57:50;102175.50;;;-2.06;100.00
61014;BME280;46899;47.542;19.082;2023-02-15T02:00:53;102175.34;;;-2.09;100.00
61014;BME280;46899;47.542;19.082;2023-02-15T02:04:04;102170.41;;;-2.06;100.00
61014;BME280;46899;47.542;19.082;2023-02-15T02:07:09;102183.16;;;-2.06;100.00
61014;BME280;46899;47.542;19.082;2023-02-15T02:10:14;102182.87;;;-2.12;100.00
61014;BME280;46899;47.542;19.082;2023-02-15T02:13:17;102175.25;;;-2.12;100.00
61014;BME280;46899;47.542;19.082;2023-02-15T02:16:21;102173.09;;;-2.03;100.00
61014;BME280;46899;47.542;19.082;2023-02-15T02:19:51;102170.94;;;-2.13;100.00
61014;BME280;46899;47.542;19.082;2023-02-15T02:45:32;102177.06;;;-2.27;100.00
61014;BME280;46899;47.542;19.082;2023-02-15T02:48:39;102175.00;;;-2.36;100.00
61014;BME280;46899;47.542;19.082;2023-02-15T02:51:42;102181.97;;;-2.32;100.00
61014;BME280;46899;47.542;19.082;2023-02-15T02:54:44;102173.16;;;-2.38;100.00
61014;BME280;46899;47.542;19.082;2023-02-15T03:01:03;102182.47;;;-2.39;100.00
61014;BME280;46899;47.542;19.082;2023-02-15T03:04:13;102179.88;;;-2.40;100.00
61014;BME280;46899;47.542;19.082;2023-02-15T03:07:18;102184.09;;;-2.41;100.00
61014;BME280;46899;47.542;19.082;2023-02-15T03:10:24;102188.16;;;-2.44;100.00
61014;BME280;46899;47.542;19.082;2023-02-15T03:13:27;102180.16;;;-2.52;100.00
61014;BME280;46899;47.542;19.082;2023-02-15T03:16:30;102179.16;;;-2.55;100.00
61014;BME280;46899;47.542;19.082;2023-02-15T03:19:34;102183.47;;;-2.54;100.00
61014;BME280;46899;47.542;19.082;2023-02-15T03:22:45;102189.19;;;-2.58;100.00
61014;BME280;46899;47.542;19.082;2023-02-15T03:25:50;102188.31;;;-2.59;100.00
61014;BME280;46899;47.542;19.082;2023-02-15T03:28:56;102178.38;;;-2.54;100.00
61014;BME280;46899;47.542;19.082;2023-02-15T03:32:02;102180.81;;;-2.56;100.00
61014;BME280;46899;47.542;19.082;2023-02-15T03:35:06;102184.25;;;-2.55;100.00
61014;BME280;46899;47.542;19.082;2023-02-15T03:38:09;102185.25;;;-2.52;100.00
61014;BME280;46899;47.542;19.082;2023-02-15T03:41:13;102191.31;;;-2.50;100.00
61014;BME280;46899;47.542;19.082;2023-02-15T03:44:19;102188.47;;;-2.56;100.00
61014;BME280;46899;47.542;19.082;2023-02-15T03:47:27;102188.41;;;-2.57;100.00
61014;BME280;46899;47.542;19.082;2023-02-15T03:50:32;102190.78;;;-2.60;100.00
61014;BME280;46899;47.542;19.082;2023-02-15T03:53:56;102190.06;;;-2.58;100.00
61014;BME280;46899;47.542;19.082;2023-02-15T03:56:59;102191.47;;;-2.64;100.00
61014;BME280;46899;47.542;19.082;2023-02-15T04:00:22;102190.00;;;-2.59;100.00
61014;BME280;46899;47.542;19.082;2023-02-15T04:03:48;102186.78;;;-2.55;100.00
61014;BME280;46899;47.542;19.082;2023-02-15T04:06:53;102192.41;;;-2.62;100.00
61014;BME280;46899;47.542;19.082;2023-02-15T04:09:56;102187.09;;;-2.67;100.00
61014;BME280;46899;47.542;19.082;2023-02-15T04:13:21;102189.63;;;-2.67;100.00
61014;BME280;46899;47.542;19.082;2023-02-15T04:16:24;102191.16;;;-2.70;100.00
61014;BME280;46899;47.542;19.082;2023-02-15T04:19:26;102187.66;;;-2.72;100.00
61014;BME280;46899;47.542;19.082;2023-02-15T04:22:48;102182.41;;;-2.76;100.00
61014;BME280;46899;47.542;19.082;2023-02-15T04:26:09;102196.84;;;-2.76;100.00
61014;BME280;46899;47.542;19.082;2023-02-15T04:29:12;102183.28;;;-2.75;100.00
61014;BME280;46899;47.542;19.082;2023-02-15T04:32:15;102192.53;;;-2.77;100.00
61014;BME280;46899;47.542;19.082;2023-02-15T04:35:17;102189.09;;;-2.78;100.00
61014;BME280;46899;47.542;19.082;2023-02-15T04:38:20;102188.16;;;-2.80;100.00
61014;BME280;46899;47.542;19.082;2023-02-15T04:41:24;102186.28;;;-2.84;100.00
61014;BME280;46899;47.542;19.082;2023-02-15T04:44:27;102192.97;;;-2.86;100.00
61014;BME280;46899;47.542;19.082;2023-02-15T04:47:30;102190.66;;;-2.81;100.00
61014;BME280;46899;47.542;19.082;2023-02-15T04:50:32;102187.28;;;-2.80;100.00
61014;BME280;46899;47.542;19.082;2023-02-15T04:53:35;102190.56;;;-2.83;100.00
61014;BME280;46899;47.542;19.082;2023-02-15T04:56:37;102191.53;;;-2.81;100.00
61014;BME280;46899;47.542;19.082;2023-02-15T04:59:41;102201.50;;;-2.67;100.00
61014;BME280;46899;47.542;19.082;2023-02-15T05:02:43;102196.47;;;-2.66;100.00
61014;BME280;46899;47.542;19.082;2023-02-15T05:05:46;102200.50;;;-2.71;100.00
61014;BME280;46899;47.542;19.082;2023-02-15T05:08:48;102199.72;;;-2.68;100.00
61014;BME280;46899;47.542;19.082;2023-02-15T05:11:51;102194.50;;;-2.71;100.00
61014;BME280;46899;47.542;19.082;2023-02-15T05:14:54;102204.69;;;-2.71;100.00
61014;BME280;46899;47.542;19.082;2023-02-15T05:17:56;102196.03;;;-2.75;100.00
61014;BME280;46899;47.542;19.082;2023-02-15T05:20:59;102208.63;;;-2.78;100.00
61014;BME280;46899;47.542;19.082;2023-02-15T05:24:02;102203.16;;;-2.86;100.00
61014;BME280;46899;47.542;19.082;2023-02-15T05:27:24;102208.31;;;-2.84;100.00
61014;BME280;46899;47.542;19.082;2023-02-15T05:31:00;102212.75;;;-2.80;100.00
61014;BME280;46899;47.542;19.082;2023-02-15T05:34:04;102221.38;;;-2.78;100.00
61014;BME280;46899;47.542;19.082;2023-02-15T05:37:07;102222.22;;;-2.78;100.00
61014;BME280;46899;47.542;19.082;2023-02-15T05:40:10;102223.81;;;-2.80;100.00
61014;BME280;46899;47.542;19.082;2023-02-15T05:43:13;102238.94;;;-2.83;100.00
61014;BME280;46899;47.542;19.082;2023-02-15T05:46:15;102226.84;;;-2.87;100.00
61014;BME280;46899;47.542;19.082;2023-02-15T05:49:18;102227.59;;;-2.89;100.00
61014;BME280;46899;47.542;19.082;2023-02-15T05:52:21;102235.88;;;-2.93;100.00
61014;BME280;46899;47.542;19.082;2023-02-15T05:55:23;102234.50;;;-2.87;100.00
61014;BME280;46899;47.542;19.082;2023-02-15T05:58:26;102242.12;;;-2.87;100.00
61014;BME280;46899;47.542;19.082;2023-02-15T06:01:29;102234.34;;;-2.90;100.00
61014;BME280;46899;47.542;19.082;2023-02-15T06:04:32;102242.88;;;-2.89;100.00
61014;BME280;46899;47.542;19.082;2023-02-15T06:07:34;102229.78;;;-2.79;100.00
61014;BME280;46899;47.542;19.082;2023-02-15T06:10:37;102239.97;;;-2.79;100.00
61014;BME280;46899;47.542;19.082;2023-02-15T06:13:39;102242.53;;;-2.79;100.00
61014;BME280;46899;47.542;19.082;2023-02-15T06:16:42;102241.88;;;-2.75;100.00
61014;BME280;46899;47.542;19.082;2023-02-15T06:19:44;102239.63;;;-2.69;100.00
61014;BME280;46899;47.542;19.082;2023-02-15T06:22:47;102252.16;;;-2.56;100.00
61014;BME280;46899;47.542;19.082;2023-02-15T06:25:49;102249.09;;;-2.49;100.00
61014;BME280;46899;47.542;19.082;2023-02-15T06:28:52;102247.81;;;-2.41;100.00
61014;BME280;46899;47.542;19.082;2023-02-15T06:31:54;102242.09;;;-2.35;100.00
61014;BME280;46899;47.542;19.082;2023-02-15T06:34:57;102247.88;;;-2.22;100.00
61014;BME280;46899;47.542;19.082;2023-02-15T06:38:00;102247.41;;;-2.13;100.00
61014;BME280;46899;47.542;19.082;2023-02-15T06:41:02;102248.88;;;-2.00;100.00
61014;BME280;46899;47.542;19.082;2023-02-15T06:44:06;102251.22;;;-1.86;100.00
61014;BME280;46899;47.542;19.082;2023-02-15T06:47:08;102247.59;;;-1.72;100.00
61014;BME280;46899;47.542;19.082;2023-02-15T06:50:11;102258.03;;;-1.48;100.00
61014;BME280;46899;47.542;19.082;2023-02-15T06:53:14;102259.31;;;-1.39;100.00
61014;BME280;46899;47.542;19.082;2023-02-15T06:56:16;102261.06;;;-1.18;100.00
61014;BME280;46899;47.542;19.082;2023-02-15T06:59:19;102257.22;;;-1.09;100.00
61014;BME280;46899;47.542;19.082;2023-02-15T07:02:21;102257.25;;;-0.88;100.00
61014;BME280;46899;47.542;19.082;2023-02-15T07:05:25;102247.34;;;-0.81;100.00
61014;BME280;46899;47.542;19.082;2023-02-15T07:08:32;102257.44;;;-0.63;100.00
61014;BME280;46899;47.542;19.082;2023-02-15T07:11:35;102254.31;;;-0.56;100.00
61014;BME280;46899;47.542;19.082;2023-02-15T07:14:56;102252.97;;;-0.48;100.00
61014;BME280;46899;47.542;19.082;2023-02-15T07:18:00;102258.56;;;-0.36;100.00
61014;BME280;46899;47.542;19.082;2023-02-15T07:21:03;102259.81;;;-0.26;100.00
61014;BME280;46899;47.542;19.082;2023-02-15T07:24:06;102259.31;;;0.05;100.00
61014;BME280;46899;47.542;19.082;2023-02-15T07:27:08;102253.84;;;0.41;100.00
61014;BME280;46899;47.542;19.082;2023-02-15T07:30:13;102255.66;;;0.91;100.00
61014;BME280;46899;47.542;19.082;2023-02-15T07:33:16;102259.97;;;1.43;100.00
61014;BME280;46899;47.542;19.082;2023-02-15T07:36:25;102248.66;;;2.19;100.00
61014;BME280;46899;47.542;19.082;2023-02-15T07:39:28;102258.91;;;2.77;100.00
61014;BME280;46899;47.542;19.082;2023-02-15T07:42:30;102252.97;;;3.11;100.00
61014;BME280;46899;47.542;19.082;2023-02-15T07:45:33;102251.59;;;3.59;100.00
61014;BME280;46899;47.542;19.082;2023-02-15T07:48:36;102253.00;;;3.82;100.00
61014;BME280;46899;47.542;19.082;2023-02-15T07:51:38;102249.72;;;3.52;99.05
61014;BME280;46899;47.542;19.082;2023-02-15T07:54:43;102245.97;;;3.75;99.07
61014;BME280;46899;47.542;19.082;2023-02-15T07:57:46;102251.63;;;4.37;93.95
61014;BME280;46899;47.542;19.082;2023-02-15T08:00:49;102247.16;;;4.70;93.18
61014;BME280;46899;47.542;19.082;2023-02-15T08:04:03;102250.34;;;7.70;74.48
61014;BME280;46899;47.542;19.082;2023-02-15T08:07:07;102241.47;;;8.85;65.91
61014;BME280;46899;47.542;19.082;2023-02-15T08:10:10;102236.50;;;7.61;70.52
61014;BME280;46899;47.542;19.082;2023-02-15T08:13:32;102235.88;;;6.19;76.51
61014;BME280;46899;47.542;19.082;2023-02-15T08:19:41;102231.50;;;5.07;85.18
61014;BME280;46899;47.542;19.082;2023-02-15T08:22:43;102231.53;;;4.62;88.48
61014;BME280;46899;47.542;19.082;2023-02-15T08:25:46;102236.50;;;4.53;90.32
61014;BME280;46899;47.542;19.082;2023-02-15T08:28:49;102226.72;;;4.80;88.68
61014;BME280;46899;47.542;19.082;2023-02-15T08:31:53;102230.06;;;6.35;82.44
61014;BME280;46899;47.542;19.082;2023-02-15T08:34:56;102222.69;;;7.66;72.74
61014;BME280;46899;47.542;19.082;2023-02-15T08:37:59;102222.87;;;7.96;69.99
61014;BME280;46899;47.542;19.082;2023-02-15T08:41:08;102220.31;;;7.98;70.54
61014;BME280;46899;47.542;19.082;2023-02-15T08:44:11;102221.28;;;7.02;73.57
61014;BME280;46899;47.542;19.082;2023-02-15T08:47:14;102208.44;;;5.69;81.20
61014;BME280;46899;47.542;19.082;2023-02-15T08:50:17;102209.78;;;5.44;83.51
61014;BME280;46899;47.542;19.082;2023-02-15T08:53:19;102217.53;;;4.95;87.87
61014;BME280;46899;47.542;19.082;2023-02-15T08:56:24;102216.69;;;4.96;89.67
61014;BME280;46899;47.542;19.082;2023-02-15T08:59:28;102214.53;;;4.70;91.20
61014;BME280;46899;47.542;19.082;2023-02-15T09:02:33;102218.97;;;4.79;90.63
61014;BME280;46899;47.542;19.082;2023-02-15T09:05:36;102213.25;;;4.95;90.88
61014;BME280;46899;47.542;19.082;2023-02-15T09:08:39;102207.28;;;4.98;91.70
61014;BME280;46899;47.542;19.082;2023-02-15T09:11:42;102208.22;;;5.01;91.97
61014;BME280;46899;47.542;19.082;2023-02-15T09:14:45;102202.53;;;5.23;92.01
61014;BME280;46899;47.542;19.082;2023-02-15T09:17:48;102196.50;;;5.20;90.59
61014;BME280;46899;47.542;19.082;2023-02-15T09:20:50;102197.53;;;5.32;90.08
61014;BME280;46899;47.542;19.082;2023-02-15T09:24:00;102196.41;;;5.71;89.32
61014;BME280;46899;47.542;19.082;2023-02-15T09:27:03;102196.41;;;5.71;88.17
61014;BME280;46899;47.542;19.082;2023-02-15T09:30:06;102192.59;;;6.03;86.57
61014;BME280;46899;47.542;19.082;2023-02-15T09:33:09;102197.13;;;6.19;85.98
61014;BME280;46899;47.542;19.082;2023-02-15T09:36:24;102191.38;;;6.44;84.13
61014;BME280;46899;47.542;19.082;2023-02-15T09:39:27;102191.47;;;6.52;84.42
61014;BME280;46899;47.542;19.082;2023-02-15T09:42:49;102188.97;;;6.59;82.46
61014;BME280;46899;47.542;19.082;2023-02-15T09:46:08;102189.75;;;6.52;82.47
61014;BME280;46899;47.542;19.082;2023-02-15T09:49:26;102179.37;;;6.51;84.11
61014;BME280;46899;47.542;19.082;2023-02-15T09:55:46;102178.09;;;6.95;80.82
61014;BME280;46899;47.542;19.082;2023-02-15T10:11:49;102157.69;;;7.27;79.09
61014;BME280;46899;47.542;19.082;2023-02-15T10:27:51;102150.19;;;7.71;77.93
61014;BME280;46899;47.542;19.082;2023-02-15T10:31:03;102154.56;;;7.79;76.04
61014;BME280;46899;47.542;19.082;2023-02-15T10:40:53;102153.00;;;8.17;73.72
61014;BME280;46899;47.542;19.082;2023-02-15T10:59:59;102141.66;;;7.88;73.33
61014;BME280;46899;47.542;19.082;2023-02-15T11:03:17;102133.06;;;7.98;73.08
61014;BME280;46899;47.542;19.082;2023-02-15T11:06:23;102127.06;;;8.07;71.68
61014;BME280;46899;47.542;19.082;2023-02-15T11:09:38;102126.22;;;8.18;71.31
61014;BME280;46899;47.542;19.082;2023-02-15T11:12:43;102113.25;;;8.15;71.44
61014;BME280;46899;47.542;19.082;2023-02-15T11:18:57;102105.47;;;8.18;71.21
61014;BME280;46899;47.542;19.082;2023-02-15T11:22:02;102102.03;;;8.25;69.90
61014;BME280;46899;47.542;19.082;2023-02-15T11:25:52;102096.06;;;8.31;70.47
61014;BME280;46899;47.542;19.082;2023-02-15T11:28:47;102092.56;;;8.26;70.00
61014;BME280;46899;47.542;19.082;2023-02-15T11:31:53;102093.47;;;8.42;69.54
61014;BME280;46899;47.542;19.082;2023-02-15T11:41:12;102070.13;;;8.33;69.22
61014;BME280;46899;47.542;19.082;2023-02-15T11:44:18;102070.13;;;8.46;69.36
61014;BME280;46899;47.542;19.082;2023-02-15T11:47:23;102069.25;;;8.37;69.00
61014;BME280;46899;47.542;19.082;2023-02-15T11:50:27;102061.47;;;8.35;69.41
61014;BME280;46899;47.542;19.082;2023-02-15T11:53:32;102058.91;;;8.55;68.98
61014;BME280;46899;47.542;19.082;2023-02-15T11:56:35;102058.91;;;8.61;68.26
61014;BME280;46899;47.542;19.082;2023-02-15T11:59:38;102052.84;;;8.69;67.74
61014;BME280;46899;47.542;19.082;2023-02-15T12:02:45;102053.72;;;8.73;67.22
61014;BME280;46899;47.542;19.082;2023-02-15T12:05:49;102050.25;;;8.77;67.09
61014;BME280;46899;47.542;19.082;2023-02-15T12:08:59;102045.06;;;8.60;67.32
61014;BME280;46899;47.542;19.082;2023-02-15T12:12:20;102039.87;;;8.75;67.10
61014;BME280;46899;47.542;19.082;2023-02-15T12:15:30;102042.47;;;8.87;65.89
61014;BME280;46899;47.542;19.082;2023-02-15T12:18:40;102032.97;;;8.85;66.01
61014;BME280;46899;47.542;19.082;2023-02-15T12:21:48;102037.25;;;8.93;65.62
61014;BME280;46899;47.542;19.082;2023-02-15T12:24:52;102028.62;;;8.94;65.18
61014;BME280;46899;47.542;19.082;2023-02-15T12:27:56;102021.72;;;8.66;65.82
61014;BME280;46899;47.542;19.082;2023-02-15T12:30:59;102015.66;;;8.73;65.86
61014;BME280;46899;47.542;19.082;2023-02-15T12:34:08;102013.06;;;8.78;65.76
61014;BME280;46899;47.542;19.082;2023-02-15T12:37:22;102007.00;;;8.79;67.10
61014;BME280;46899;47.542;19.082;2023-02-15T12:40:27;102014.75;;;8.88;66.41
61014;BME280;46899;47.542;19.082;2023-02-15T12:43:34;102002.69;;;8.85;65.88
61014;BME280;46899;47.542;19.082;2023-02-15T12:46:36;101997.41;;;9.13;65.51
61014;BME280;46899;47.542;19.082;2023-02-15T12:49:40;102001.75;;;9.03;65.81
61014;BME280;46899;47.542;19.082;2023-02-15T12:52:50;101994.84;;;9.11;65.29
61014;BME280;46899;47.542;19.082;2023-02-15T12:55:57;101990.44;;;9.24;65.09
61014;BME280;46899;47.542;19.082;2023-02-15T12:59:04;101987.84;;;9.34;64.63
61014;BME280;46899;47.542;19.082;2023-02-15T13:02:09;101982.59;;;9.40;64.44
61014;BME280;46899;47.542;19.082;2023-02-15T13:08:45;101971.41;;;9.29;63.51
61014;BME280;46899;47.542;19.082;2023-02-15T13:11:48;101966.19;;;9.29;64.77
61014;BME280;46899;47.542;19.082;2023-02-15T13:14:52;101968.81;;;9.26;64.34
61014;BME280;46899;47.542;19.082;2023-02-15T13:17:59;101957.56;;;9.24;64.54
61014;BME280;46899;47.542;19.082;2023-02-15T13:24:23;101954.06;;;9.34;63.71
61014;BME280;46899;47.542;19.082;2023-02-15T13:27:32;101948.03;;;9.26;64.09
61014;BME280;46899;47.542;19.082;2023-02-15T13:30:42;101955.84;;;9.17;65.17
61014;BME280;46899;47.542;19.082;2023-02-15T13:33:53;101941.97;;;9.24;64.73
61014;BME280;46899;47.542;19.082;2023-02-15T13:40:06;101945.37;;;9.35;63.91
61014;BME280;46899;47.542;19.082;2023-02-15T13:43:33;101935.94;;;9.25;64.77
61014;BME280;46899;47.542;19.082;2023-02-15T13:52:47;101942.06;;;8.95;64.68
61014;BME280;46899;47.542;19.082;2023-02-15T13:55:54;101940.34;;;9.01;64.88
61014;BME280;46899;47.542;19.082;2023-02-15T14:21:32;101923.06;;;8.81;67.13
61014;BME280;46899;47.542;19.082;2023-02-15T14:27:54;101926.59;;;8.71;67.58
61014;BME280;46899;47.542;19.082;2023-02-15T14:30:58;101930.88;;;8.74;67.41
61014;BME280;46899;47.542;19.082;2023-02-15T14:34:02;101931.78;;;8.68;66.93
61014;BME280;46899;47.542;19.082;2023-02-15T14:37:06;101929.16;;;8.65;67.52
61014;BME280;46899;47.542;19.082;2023-02-15T14:46:52;101933.50;;;8.53;67.18
61014;BME280;46899;47.542;19.082;2023-02-15T14:49:57;101930.94;;;8.47;67.35
61014;BME280;46899;47.542;19.082;2023-02-15T14:53:15;101925.75;;;8.35;68.25
61014;BME280;46899;47.542;19.082;2023-02-15T14:56:20;101927.50;;;8.36;68.06
61014;BME280;46899;47.542;19.082;2023-02-15T14:59:22;101917.94;;;8.25;69.24
61014;BME280;46899;47.542;19.082;2023-02-15T15:02:46;101917.09;;;8.23;69.66
61014;BME280;46899;47.542;19.082;2023-02-15T15:05:51;101919.69;;;8.10;70.40
61014;BME280;46899;47.542;19.082;2023-02-15T15:08:55;101911.03;;;7.94;71.88
61014;BME280;46899;47.542;19.082;2023-02-15T15:18:44;101906.66;;;7.71;72.74
61014;BME280;46899;47.542;19.082;2023-02-15T15:24:53;101904.91;;;7.53;74.96
61014;BME280;46899;47.542;19.082;2023-02-15T15:27:56;101899.72;;;7.45;75.14
61014;BME280;46899;47.542;19.082;2023-02-15T15:40:52;101908.16;;;6.98;78.72
61014;BME280;46899;47.542;19.082;2023-02-15T15:50:23;101901.84;;;6.50;81.03
61014;BME280;46899;47.542;19.082;2023-02-15T15:53:27;101901.78;;;6.38;82.25
61014;BME280;46899;47.542;19.082;2023-02-15T15:56:32;101899.13;;;6.29;83.17
61014;BME280;46899;47.542;19.082;2023-02-15T15:59:36;101903.31;;;6.15;84.91
61014;BME280;46899;47.542;19.082;2023-02-15T16:02:49;101905.78;;;6.00;85.45
61014;BME280;46899;47.542;19.082;2023-02-15T16:05:52;101897.94;;;5.88;86.81
61014;BME280;46899;47.542;19.082;2023-02-15T16:08:58;101892.62;;;5.76;87.95
61014;BME280;46899;47.542;19.082;2023-02-15T16:12:13;101883.91;;;5.68;89.51
61014;BME280;46899;47.542;19.082;2023-02-15T16:15:19;101891.63;;;5.62;90.41
61014;BME280;46899;47.542;19.082;2023-02-15T16:18:25;101894.06;;;5.49;91.23
61014;BME280;46899;47.542;19.082;2023-02-15T16:21:30;101900.16;;;5.54;92.29
61014;BME280;46899;47.542;19.082;2023-02-15T16:24:38;101903.56;;;5.50;92.11
61014;BME280;46899;47.542;19.082;2023-02-15T16:27:45;101897.44;;;5.42;93.23
61014;BME280;46899;47.542;19.082;2023-02-15T16:30:54;101899.88;;;5.27;94.16
61014;BME280;46899;47.542;19.082;2023-02-15T16:34:01;101897.16;;;5.17;95.93
61014;BME280;46899;47.542;19.082;2023-02-15T16:37:15;101896.31;;;5.19;96.90
61014;BME280;46899;47.542;19.082;2023-02-15T16:40:25;101904.78;;;5.09;97.50
61014;BME280;46899;47.542;19.082;2023-02-15T16:43:29;101901.28;;;5.04;97.84
61014;BME280;46899;47.542;19.082;2023-02-15T16:46:37;101901.34;;;5.07;99.05
61014;BME280;46899;47.542;19.082;2023-02-15T16:49:43;101900.41;;;5.01;99.88
61014;BME280;46899;47.542;19.082;2023-02-15T16:52:47;101897.59;;;4.84;100.00
61014;BME280;46899;47.542;19.082;2023-02-15T16:55:51;101901.00;;;4.81;100.00
61014;BME280;46899;47.542;19.082;2023-02-15T16:58:55;101903.44;;;4.71;100.00
61014;BME280;46899;47.542;19.082;2023-02-15T17:01:59;101901.72;;;4.71;100.00
61014;BME280;46899;47.542;19.082;2023-02-15T17:08:16;101906.75;;;4.61;100.00
61014;BME280;46899;47.542;19.082;2023-02-15T17:11:20;101906.81;;;4.67;100.00
61014;BME280;46899;47.542;19.082;2023-02-15T17:14:27;101911.19;;;4.71;100.00
61014;BME280;46899;47.542;19.082;2023-02-15T17:17:31;101918.75;;;4.60;100.00
61014;BME280;46899;47.542;19.082;2023-02-15T17:20:35;101917.81;;;4.54;100.00
61014;BME280;46899;47.542;19.082;2023-02-15T17:23:43;101909.13;;;4.49;100.00
61014;BME280;46899;47.542;19.082;2023-02-15T17:26:49;101917.81;;;4.55;100.00
61014;BME280;46899;47.542;19.082;2023-02-15T17:30:00;101913.34;;;4.45;100.00
61014;BME280;46899;47.542;19.082;2023-02-15T17:33:04;101919.13;;;4.28;100.00
61014;BME280;46899;47.542;19.082;2023-02-15T17:36:21;101916.22;;;4.08;100.00
61014;BME280;46899;47.542;19.082;2023-02-15T17:39:25;101916.72;;;3.87;100.00
61014;BME280;46899;47.542;19.082;2023-02-15T17:42:29;101918.19;;;3.75;100.00
61014;BME280;46899;47.542;19.082;2023-02-15T17:45:33;101907.66;;;3.60;100.00
61014;BME280;46899;47.542;19.082;2023-02-15T17:48:39;101910.06;;;3.51;100.00
61014;BME280;46899;47.542;19.082;2023-02-15T17:51:43;101916.69;;;3.39;100.00
61014;BME280;46899;47.542;19.082;2023-02-15T17:54:46;101918.91;;;3.23;100.00
61014;BME280;46899;47.542;19.082;2023-02-15T17:58:15;101918.75;;;3.14;100.00
61014;BME280;46899;47.542;19.082;2023-02-15T18:01:18;101918.44;;;2.99;100.00
61014;BME280;46899;47.542;19.082;2023-02-15T18:04:41;101916.50;;;2.89;100.00
61014;BME280;46899;47.542;19.082;2023-02-15T18:08:02;101919.78;;;2.82;100.00
61014;BME280;46899;47.542;19.082;2023-02-15T18:11:24;101921.28;;;2.72;100.00
61014;BME280;46899;47.542;19.082;2023-02-15T18:14:42;101920.94;;;2.57;100.00
61014;BME280;46899;47.542;19.082;2023-02-15T18:17:45;101915.47;;;2.43;100.00
61014;BME280;46899;47.542;19.082;2023-02-15T18:20:49;101911.00;;;2.35;100.00
61014;BME280;46899;47.542;19.082;2023-02-15T18:23:52;101916.84;;;2.28;100.00
61014;BME280;46899;47.542;19.082;2023-02-15T18:26:56;101921.06;;;2.26;100.00
61014;BME280;46899;47.542;19.082;2023-02-15T18:29:59;101914.84;;;2.16;100.00
61014;BME280;46899;47.542;19.082;2023-02-15T18:33:02;101908.63;;;2.06;100.00
61014;BME280;46899;47.542;19.082;2023-02-15T18:36:06;101913.66;;;2.02;100.00
61014;BME280;46899;47.542;19.082;2023-02-15T18:39:19;101910.06;;;1.95;100.00
61014;BME280;46899;47.542;19.082;2023-02-15T18:42:29;101901.44;;;1.93;100.00
61014;BME280;46899;47.542;19.082;2023-02-15T18:45:32;101910.59;;;1.84;100.00
61014;BME280;46899;47.542;19.082;2023-02-15T18:48:37;101918.13;;;1.76;100.00